createdAt,value
2018-07-22T00:02:21.255Z,20.50
2018-07-22T00:04:48.608Z,20.50
2018-07-22T00:07:15.960Z,20.40
2018-07-22T00:09:43.276Z,20.20
2018-07-22T00:12:10.611Z,20.10
2018-07-22T00:14:37.918Z,20.00
2018-07-22T00:17:05.280Z,19.90
2018-07-22T00:19:32.621Z,19.90
2018-07-22T00:21:59.962Z,19.90
2018-07-22T00:24:27.273Z,20.00
2018-07-22T00:26:54.660Z,19.90
2018-07-22T00:29:22.024Z,19.90
2018-07-22T00:31:49.371Z,19.90
2018-07-22T00:34:16.733Z,19.90
2018-07-22T00:36:44.076Z,20.10
2018-07-22T00:39:11.428Z,20.10
2018-07-22T00:41:38.738Z,20.20
2018-07-22T00:44:06.080Z,20.30
2018-07-22T00:46:33.399Z,20.20
2018-07-22T00:49:00.716Z,20.20
2018-07-22T00:51:28.039Z,20.20
2018-07-22T00:53:55.404Z,20.20
2018-07-22T00:56:22.876Z,20.20
2018-07-22T00:58:50.214Z,20.20
2018-07-22T01:01:17.535Z,20.20
2018-07-22T01:03:44.914Z,20.20
2018-07-22T01:06:12.298Z,20.30
2018-07-22T01:11:06.789Z,20.30
2018-07-22T01:13:34.114Z,20.20
2018-07-22T01:16:01.460Z,19.90
2018-07-22T01:20:56.116Z,19.40
2018-07-22T01:23:23.511Z,19.10
2018-07-22T01:25:50.855Z,19.00
2018-07-22T01:28:18.197Z,19.10
2018-07-22T01:30:45.634Z,19.10
2018-07-22T01:33:12.963Z,19.00
2018-07-22T01:35:40.305Z,18.90
2018-07-22T01:38:07.624Z,18.90
2018-07-22T01:40:34.956Z,19.10
2018-07-22T01:43:02.294Z,19.30
2018-07-22T01:45:29.624Z,19.40
2018-07-22T01:47:56.986Z,19.40
2018-07-22T01:50:24.410Z,19.40
2018-07-22T01:52:51.754Z,19.40
2018-07-22T01:55:19.084Z,19.20
2018-07-22T01:57:46.401Z,19.10
2018-07-22T02:00:13.771Z,19.10
2018-07-22T02:02:41.112Z,19.10
2018-07-22T02:05:08.467Z,19.10
2018-07-22T02:07:35.805Z,19.00
2018-07-22T02:10:03.147Z,19.00
2018-07-22T02:12:30.493Z,19.10
2018-07-22T02:14:57.861Z,19.30
2018-07-22T02:17:25.214Z,19.40
2018-07-22T02:19:52.663Z,19.60
2018-07-22T02:24:47.163Z,19.70
2018-07-22T02:27:14.500Z,19.70
2018-07-22T02:29:41.828Z,19.80
2018-07-22T02:32:09.159Z,19.80
2018-07-22T02:34:36.503Z,19.80
2018-07-22T02:37:03.833Z,19.80
2018-07-22T02:39:31.168Z,19.80
2018-07-22T02:41:58.532Z,19.80
2018-07-22T02:44:25.907Z,19.80
2018-07-22T02:46:53.411Z,19.80
2018-07-22T02:49:20.752Z,19.80
2018-07-22T02:51:48.128Z,19.80
2018-07-22T02:54:15.471Z,19.80
2018-07-22T02:56:42.836Z,19.80
2018-07-22T02:59:10.170Z,19.70
2018-07-22T03:01:37.941Z,19.60
2018-07-22T03:04:06.048Z,19.60
2018-07-22T03:06:33.380Z,19.60
2018-07-22T03:09:00.736Z,19.60
2018-07-22T03:11:28.052Z,19.70
2018-07-22T03:13:55.406Z,19.70
2018-07-22T03:16:22.770Z,19.70
2018-07-22T03:18:50.135Z,19.70
2018-07-22T03:21:17.461Z,19.60
2018-07-22T03:23:44.795Z,19.70
2018-07-22T03:26:12.123Z,19.60
2018-07-22T03:28:39.474Z,19.70
2018-07-22T03:31:06.818Z,19.70
2018-07-22T03:33:34.155Z,19.70
2018-07-22T03:36:01.499Z,19.70
2018-07-22T03:38:28.827Z,19.70
2018-07-22T03:40:56.197Z,19.70
2018-07-22T03:43:23.587Z,19.80
2018-07-22T03:45:51.141Z,19.80
2018-07-22T03:48:18.496Z,19.70
2018-07-22T03:50:45.845Z,19.70
2018-07-22T03:53:13.153Z,19.70
2018-07-22T03:55:40.503Z,19.70
2018-07-22T03:58:07.833Z,19.70
2018-07-22T04:00:35.154Z,19.60
2018-07-22T04:03:02.468Z,19.60
2018-07-22T04:05:29.784Z,19.60
2018-07-22T04:07:57.107Z,19.60
2018-07-22T04:10:24.480Z,19.70
2018-07-22T04:12:51.898Z,19.70
2018-07-22T04:15:19.214Z,19.70
2018-07-22T04:17:46.520Z,19.70
2018-07-22T04:20:13.963Z,19.70
2018-07-22T04:22:41.320Z,19.80
2018-07-22T04:25:08.648Z,19.70
2018-07-22T04:27:36.000Z,19.70
2018-07-22T04:30:03.748Z,19.70
2018-07-22T04:32:31.083Z,19.80
2018-07-22T04:34:58.422Z,19.80
2018-07-22T04:37:25.793Z,19.90
2018-07-22T04:39:53.170Z,20.00
2018-07-22T04:42:20.502Z,20.00
2018-07-22T04:44:47.826Z,20.10
2018-07-22T04:47:15.155Z,20.20
2018-07-22T04:49:42.548Z,20.20
2018-07-22T04:52:09.856Z,20.30
2018-07-22T04:54:37.187Z,20.30
2018-07-22T04:57:04.550Z,20.40
2018-07-22T04:59:31.888Z,20.30
2018-07-22T05:01:59.209Z,20.40
2018-07-22T05:04:26.561Z,20.40
2018-07-22T05:06:53.908Z,20.40
2018-07-22T05:09:21.264Z,20.40
2018-07-22T05:11:48.580Z,20.50
2018-07-22T05:14:15.901Z,20.60
2018-07-22T05:16:43.235Z,20.70
2018-07-22T05:19:10.556Z,20.70
2018-07-22T05:21:37.882Z,20.70
2018-07-22T05:24:05.331Z,20.90
2018-07-22T05:26:32.660Z,20.90
2018-07-22T05:28:59.979Z,21.00
2018-07-22T05:31:27.343Z,21.10
2018-07-22T05:33:54.694Z,21.20
2018-07-22T05:36:22.039Z,21.30
2018-07-22T05:38:49.416Z,21.40
2018-07-22T05:41:16.746Z,21.60
2018-07-22T05:43:44.092Z,21.70
2018-07-22T05:46:11.468Z,21.90
2018-07-22T05:48:38.783Z,22.00
2018-07-22T05:51:06.145Z,22.00
2018-07-22T05:53:33.478Z,22.10
2018-07-22T05:56:00.801Z,22.20
2018-07-22T05:58:28.145Z,22.30
2018-07-22T06:00:55.510Z,22.50
2018-07-22T06:03:22.919Z,22.60
2018-07-22T06:05:50.275Z,22.70
2018-07-22T06:08:17.628Z,22.80
2018-07-22T06:10:44.969Z,22.90
2018-07-22T06:13:12.285Z,23.00
2018-07-22T06:15:39.676Z,23.10
2018-07-22T06:18:07.031Z,23.30
2018-07-22T06:20:34.359Z,23.40
2018-07-22T06:23:01.693Z,23.50
2018-07-22T06:25:29.050Z,23.70
2018-07-22T06:27:56.447Z,23.90
2018-07-22T06:30:23.884Z,24.10
2018-07-22T06:32:51.288Z,24.30
2018-07-22T06:35:18.723Z,24.50
2018-07-22T06:37:45.966Z,24.60
2018-07-22T06:40:13.324Z,24.70
2018-07-22T06:42:40.620Z,24.90
2018-07-22T06:45:08.006Z,24.90
2018-07-22T06:47:35.345Z,25.00
2018-07-22T06:50:02.683Z,24.80
2018-07-22T06:52:30.007Z,24.80
2018-07-22T06:54:57.379Z,25.00
2018-07-22T06:57:24.783Z,25.10
2018-07-22T06:59:52.208Z,25.10
2018-07-22T07:02:19.567Z,25.30
2018-07-22T07:04:46.891Z,25.60
2018-07-22T07:07:14.226Z,25.70
2018-07-22T07:09:41.584Z,25.70
2018-07-22T07:12:08.957Z,25.90
2018-07-22T07:14:36.282Z,26.10
2018-07-22T07:17:03.622Z,26.20
2018-07-22T07:19:30.934Z,26.20
2018-07-22T07:21:58.326Z,26.30
2018-07-22T07:24:25.728Z,26.30
2018-07-22T07:26:53.091Z,26.50
2018-07-22T07:29:20.433Z,26.50
2018-07-22T07:31:47.762Z,26.60
2018-07-22T07:34:15.214Z,26.60
2018-07-22T07:36:42.530Z,26.70
2018-07-22T07:39:09.860Z,26.80
2018-07-22T07:41:37.206Z,26.80
2018-07-22T07:44:04.533Z,26.60
2018-07-22T07:46:31.918Z,26.20
2018-07-22T07:48:59.267Z,26.00
2018-07-22T07:51:26.730Z,25.90
2018-07-22T07:53:54.092Z,26.00
2018-07-22T07:56:21.468Z,25.90
2018-07-22T08:01:16.090Z,24.90
2018-07-22T08:03:43.445Z,24.90
2018-07-22T08:06:10.783Z,25.10
2018-07-22T08:08:38.140Z,25.10
2018-07-22T08:11:05.552Z,25.00
2018-07-22T08:13:32.872Z,25.00
2018-07-22T08:16:00.213Z,24.90
2018-07-22T08:18:27.529Z,24.90
2018-07-22T08:20:55.059Z,25.00
2018-07-22T08:23:22.506Z,25.20
2018-07-22T08:25:49.860Z,25.40
2018-07-22T08:28:27.441Z,25.60
2018-07-22T08:30:54.813Z,25.80
2018-07-22T08:33:22.194Z,26.00
2018-07-22T08:35:49.567Z,26.20
2018-07-22T08:38:16.927Z,26.40
2018-07-22T08:40:44.270Z,26.50
2018-07-22T08:43:11.628Z,26.50
2018-07-22T08:45:38.940Z,26.70
2018-07-22T08:48:07.217Z,26.70
2018-07-22T08:50:34.576Z,26.80
2018-07-22T08:53:01.911Z,27.00
2018-07-22T08:55:29.261Z,27.10
2018-07-22T08:57:56.621Z,27.30
2018-07-22T09:00:24.038Z,27.40
2018-07-22T09:02:52.045Z,27.50
2018-07-22T09:05:19.356Z,27.60
2018-07-22T09:07:46.738Z,27.70
2018-07-22T09:10:14.060Z,27.80
2018-07-22T09:12:41.380Z,27.70
2018-07-22T09:17:36.016Z,27.70
2018-07-22T09:20:03.868Z,27.70
2018-07-22T09:22:31.200Z,27.70
2018-07-22T09:24:58.552Z,27.80
2018-07-22T09:27:26.049Z,27.90
2018-07-22T09:29:53.469Z,27.90
2018-07-22T09:32:20.794Z,27.80
2018-07-22T09:34:48.244Z,27.70
2018-07-22T09:37:15.648Z,27.80
2018-07-22T09:39:42.998Z,27.90
2018-07-22T09:42:10.401Z,28.00
2018-07-22T09:44:37.831Z,28.30
2018-07-22T09:47:05.428Z,28.40
2018-07-22T09:49:32.795Z,28.60
2018-07-22T09:52:00.125Z,28.70
2018-07-22T09:54:27.454Z,28.60
2018-07-22T09:56:54.884Z,28.70
2018-07-22T09:59:22.343Z,28.70
2018-07-22T10:01:49.705Z,28.80
2018-07-22T10:04:17.037Z,28.60
2018-07-22T10:06:44.356Z,28.60
2018-07-22T10:09:11.711Z,28.80
2018-07-22T10:11:39.067Z,28.90
2018-07-22T10:14:06.471Z,28.90
2018-07-22T10:16:33.878Z,28.00
2018-07-22T10:19:01.213Z,27.60
2018-07-22T10:21:28.561Z,27.80
2018-07-22T10:23:55.920Z,27.70
2018-07-22T10:28:50.534Z,28.10
2018-07-22T10:31:17.892Z,28.40
2018-07-22T10:33:45.239Z,28.50
2018-07-22T10:36:12.599Z,27.60
2018-07-22T10:38:39.957Z,26.80
2018-07-22T10:41:07.276Z,26.70
2018-07-22T10:43:34.623Z,26.50
2018-07-22T10:46:01.965Z,26.70
2018-07-22T10:48:29.315Z,26.90
2018-07-22T10:50:56.686Z,27.30
2018-07-22T10:53:24.093Z,27.90
2018-07-22T10:55:51.431Z,28.30
2018-07-22T10:58:18.788Z,27.90
2018-07-22T11:00:46.140Z,27.80
2018-07-22T11:03:13.607Z,28.10
2018-07-22T11:05:40.894Z,28.40
2018-07-22T11:08:08.228Z,28.70
2018-07-22T11:10:35.710Z,28.30
2018-07-22T11:13:03.012Z,27.90
2018-07-22T11:15:30.343Z,27.70
2018-07-22T11:17:57.680Z,27.60
2018-07-22T11:20:25.048Z,27.80
2018-07-22T11:22:52.417Z,28.20
2018-07-22T11:25:19.751Z,28.60
2018-07-22T11:27:47.095Z,28.80
2018-07-22T11:30:14.438Z,28.90
2018-07-22T11:32:41.798Z,29.00
2018-07-22T11:35:09.168Z,28.90
2018-07-22T11:37:36.503Z,29.00
2018-07-22T11:40:04.188Z,28.30
2018-07-22T11:42:31.482Z,27.70
2018-07-22T11:44:58.907Z,27.30
2018-07-22T11:47:26.320Z,27.20
2018-07-22T11:49:53.746Z,27.60
2018-07-22T11:52:21.119Z,27.90
2018-07-22T11:54:48.499Z,28.20
2018-07-22T11:57:15.883Z,28.50
2018-07-22T11:59:43.241Z,28.80
2018-07-22T12:02:10.622Z,28.90
2018-07-22T12:04:37.947Z,28.70
2018-07-22T12:07:05.281Z,28.30
2018-07-22T12:09:32.633Z,28.10
2018-07-22T12:11:59.966Z,28.00
2018-07-22T12:14:27.354Z,28.00
2018-07-22T12:16:54.714Z,28.10
2018-07-22T12:19:22.155Z,28.40
2018-07-22T12:21:49.509Z,28.50
2018-07-22T12:24:16.913Z,28.80
2018-07-22T12:26:44.298Z,29.10
2018-07-22T12:29:11.669Z,29.00
2018-07-22T12:31:39.032Z,28.90
2018-07-22T12:34:06.451Z,28.90
2018-07-22T12:36:33.820Z,28.90
2018-07-22T12:39:01.172Z,28.80
2018-07-22T12:41:28.530Z,28.80
2018-07-22T12:43:55.887Z,28.70
2018-07-22T12:46:23.368Z,28.70
2018-07-22T12:48:50.718Z,28.60
2018-07-22T12:51:18.083Z,28.60
2018-07-22T12:53:45.499Z,28.40
2018-07-22T12:56:12.784Z,28.00
2018-07-22T12:58:40.139Z,27.20
2018-07-22T13:01:07.500Z,26.60
2018-07-22T13:03:34.835Z,26.00
2018-07-22T13:06:02.151Z,25.60
2018-07-22T13:08:29.496Z,25.00
2018-07-22T13:10:56.928Z,24.50
2018-07-22T13:13:24.651Z,24.30
2018-07-22T13:15:51.959Z,24.20
2018-07-22T13:18:19.305Z,24.20
2018-07-22T13:20:46.649Z,24.30
2018-07-22T13:23:13.982Z,24.30
2018-07-22T13:25:41.320Z,24.50
2018-07-22T13:28:08.651Z,24.80
2018-07-22T13:30:36.297Z,25.00
2018-07-22T13:33:03.695Z,25.00
2018-07-22T13:35:31.036Z,25.20
2018-07-22T13:37:58.401Z,25.40
2018-07-22T13:40:25.721Z,25.60
2018-07-22T13:42:53.692Z,25.80
2018-07-22T13:45:21.141Z,25.90
2018-07-22T13:47:48.336Z,25.90
2018-07-22T13:50:15.720Z,25.90
2018-07-22T13:52:43.033Z,25.70
2018-07-22T13:55:10.396Z,25.60
2018-07-22T13:57:37.741Z,25.20
2018-07-22T14:00:05.239Z,24.70
2018-07-22T14:02:32.641Z,24.30
2018-07-22T14:04:59.951Z,23.90
2018-07-22T14:07:27.324Z,23.40
2018-07-22T14:09:54.663Z,22.90
2018-07-22T14:12:22.059Z,22.60
2018-07-22T14:14:49.359Z,22.20
2018-07-22T14:17:16.735Z,21.80
2018-07-22T14:19:44.061Z,21.50
2018-07-22T14:22:11.416Z,21.40
2018-07-22T14:24:38.733Z,21.30
2018-07-22T14:27:06.095Z,21.20
2018-07-22T14:29:33.419Z,21.10
2018-07-22T14:32:00.759Z,20.80
2018-07-22T14:34:28.191Z,20.40
2018-07-22T14:36:55.549Z,20.20
2018-07-22T14:41:50.120Z,20.20
2018-07-22T14:44:17.461Z,20.30
2018-07-22T14:46:44.819Z,20.10
2018-07-22T14:49:12.192Z,19.90
2018-07-22T14:51:39.507Z,19.90
2018-07-22T14:54:06.857Z,20.10
2018-07-22T14:56:34.229Z,20.40
2018-07-22T14:59:01.540Z,20.50
2018-07-22T15:01:28.968Z,20.40
2018-07-22T15:03:56.352Z,20.20
2018-07-22T15:06:23.749Z,20.20
2018-07-22T15:08:51.084Z,20.20
2018-07-22T15:11:18.420Z,20.20
2018-07-22T15:13:45.873Z,20.20
2018-07-22T15:16:13.199Z,20.40
2018-07-22T15:18:40.555Z,20.50
2018-07-22T15:21:07.851Z,20.50
2018-07-22T15:23:35.191Z,20.40
2018-07-22T15:26:02.533Z,20.10
2018-07-22T15:28:29.878Z,20.00
2018-07-22T15:30:57.255Z,20.00
2018-07-22T15:33:24.666Z,19.80
2018-07-22T15:35:52.018Z,20.00
2018-07-22T15:38:19.356Z,20.00
2018-07-22T15:40:46.681Z,20.20
2018-07-22T15:43:14.079Z,20.40
2018-07-22T15:45:41.415Z,20.50
2018-07-22T15:48:09.181Z,20.40
2018-07-22T15:50:36.573Z,20.40
2018-07-22T15:53:03.979Z,20.50
2018-07-22T15:55:31.475Z,20.50
2018-07-22T15:57:58.676Z,20.50
2018-07-22T16:00:26.046Z,20.60
2018-07-22T16:02:53.388Z,20.70
2018-07-22T16:05:20.751Z,20.80
2018-07-22T16:07:48.129Z,20.80
2018-07-22T16:10:15.468Z,20.80
2018-07-22T16:12:42.814Z,20.80
2018-07-22T16:15:10.170Z,20.80
2018-07-22T16:17:37.512Z,20.80
2018-07-22T16:20:04.835Z,20.80
2018-07-22T16:22:32.184Z,20.90
2018-07-22T16:24:59.508Z,21.00
2018-07-22T16:27:26.975Z,21.10
2018-07-22T16:29:54.429Z,21.20
2018-07-22T16:32:21.792Z,21.30
2018-07-22T16:34:49.122Z,21.30
2018-07-22T16:37:16.529Z,21.30
2018-07-22T16:42:11.106Z,21.60
2018-07-22T16:44:38.499Z,21.70
2018-07-22T16:47:05.838Z,21.80
2018-07-22T16:49:33.330Z,21.70
2018-07-22T16:52:00.674Z,21.80
2018-07-22T16:54:28.115Z,22.00
2018-07-22T16:59:22.655Z,22.00
2018-07-22T17:01:49.984Z,22.00
2018-07-22T17:04:17.316Z,22.10
2018-07-22T17:06:44.669Z,22.00
2018-07-22T17:09:12.031Z,22.10
2018-07-22T17:11:39.450Z,22.20
2018-07-22T17:14:06.792Z,22.30
2018-07-22T17:16:34.117Z,22.70
2018-07-22T17:19:01.775Z,23.20
2018-07-22T17:21:29.148Z,23.40
2018-07-22T17:23:56.534Z,23.40
2018-07-22T17:26:23.904Z,23.50
2018-07-22T17:28:51.225Z,23.60
2018-07-22T17:31:18.576Z,23.70
2018-07-22T17:33:45.933Z,23.70
2018-07-22T17:36:13.286Z,23.80
2018-07-22T17:38:40.636Z,23.90
2018-07-22T17:41:07.972Z,24.00
2018-07-22T17:43:35.310Z,24.00
2018-07-22T17:46:02.635Z,24.00
2018-07-22T17:48:30.031Z,24.00
2018-07-22T17:50:57.470Z,24.00
2018-07-22T17:53:24.884Z,24.20
2018-07-22T17:55:52.546Z,24.40
2018-07-22T17:58:19.884Z,24.40
2018-07-22T18:00:47.233Z,24.40
2018-07-22T18:03:19.295Z,24.30
2018-07-22T18:05:46.657Z,24.30
2018-07-22T18:08:14.035Z,24.30
2018-07-22T18:10:41.364Z,24.30
2018-07-22T18:13:08.695Z,24.40
2018-07-22T18:15:36.019Z,24.40
2018-07-22T18:18:03.460Z,24.50
2018-07-22T18:20:30.816Z,24.60
2018-07-22T18:22:58.204Z,24.60
2018-07-22T18:25:25.524Z,24.60
2018-07-22T18:27:53.753Z,24.50
2018-07-22T18:30:21.147Z,24.40
2018-07-22T18:32:48.652Z,24.20
2018-07-22T18:35:16.062Z,24.10
2018-07-22T18:37:43.416Z,23.90
2018-07-22T18:40:10.828Z,23.80
2018-07-22T18:42:38.824Z,23.70
2018-07-22T18:45:06.162Z,23.60
2018-07-22T18:47:33.495Z,23.60
2018-07-22T18:50:00.827Z,23.50
2018-07-22T18:52:28.150Z,23.40
2018-07-22T18:54:55.789Z,23.40
2018-07-22T18:57:23.237Z,23.40
2018-07-22T18:59:50.647Z,23.40
2018-07-22T19:02:18.268Z,23.30
2018-07-22T19:04:45.611Z,23.30
2018-07-22T19:07:12.950Z,23.20
2018-07-22T19:09:40.301Z,23.20
2018-07-22T19:12:07.640Z,23.20
2018-07-22T19:14:34.974Z,23.10
2018-07-22T19:17:02.274Z,23.10
2018-07-22T19:19:29.699Z,23.00
2018-07-22T19:21:57.014Z,22.90
2018-07-22T19:24:24.478Z,22.90
2018-07-22T19:26:51.848Z,22.80
2018-07-22T19:29:19.250Z,22.70
2018-07-22T19:31:46.575Z,22.60
2018-07-22T19:34:13.892Z,22.50
2018-07-22T19:36:41.247Z,22.50
2018-07-22T19:39:08.580Z,22.50
2018-07-22T19:41:35.913Z,22.50
2018-07-22T19:44:03.244Z,22.50
2018-07-22T19:46:30.633Z,22.50
2018-07-22T19:48:58.002Z,22.50
2018-07-22T19:51:25.436Z,22.60
2018-07-22T19:53:52.827Z,22.50
2018-07-22T19:56:20.243Z,22.50
2018-07-22T19:58:47.626Z,22.40
2018-07-22T20:01:14.970Z,22.30
2018-07-22T20:03:42.295Z,22.30
2018-07-22T20:06:09.628Z,22.20
2018-07-22T20:08:36.989Z,22.20
2018-07-22T20:11:04.318Z,22.20
2018-07-22T20:13:31.658Z,22.20
2018-07-22T20:15:59.020Z,22.30
2018-07-22T20:18:26.427Z,22.20
2018-07-22T20:20:53.926Z,22.20
2018-07-22T20:23:21.231Z,22.20
2018-07-22T20:25:48.602Z,22.20
2018-07-22T20:28:15.914Z,22.10
2018-07-22T20:30:43.240Z,22.10
2018-07-22T20:33:10.566Z,22.20
2018-07-22T20:35:37.880Z,22.20
2018-07-22T20:38:05.609Z,22.00
2018-07-22T20:40:32.930Z,22.00
2018-07-22T20:43:00.267Z,22.00
2018-07-22T20:45:27.628Z,22.00
2018-07-22T20:47:55.017Z,22.10
2018-07-22T20:50:22.393Z,22.10
2018-07-22T20:52:49.743Z,22.00
2018-07-22T20:55:17.046Z,21.90
2018-07-22T20:57:44.390Z,21.90
2018-07-22T21:00:11.697Z,21.90
2018-07-22T21:02:39.036Z,21.90
2018-07-22T21:05:06.410Z,21.80
2018-07-22T21:07:33.734Z,21.60
2018-07-22T21:10:01.064Z,21.60
2018-07-22T21:12:40.579Z,21.40
2018-07-22T21:15:07.990Z,21.30
2018-07-22T21:17:35.259Z,21.10
2018-07-22T21:20:02.593Z,21.10
2018-07-22T21:22:29.927Z,21.00
2018-07-22T21:24:57.302Z,21.00
2018-07-22T21:27:24.666Z,21.00
2018-07-22T21:29:51.984Z,21.00
2018-07-22T21:32:19.304Z,21.10
2018-07-22T21:34:46.752Z,21.10
2018-07-22T21:37:14.140Z,21.00
2018-07-22T21:39:41.461Z,21.00
2018-07-22T21:42:08.908Z,21.10
2018-07-22T21:44:36.240Z,21.10
2018-07-22T21:47:03.587Z,21.10
2018-07-22T21:49:30.970Z,21.10
2018-07-22T21:54:25.564Z,20.80
2018-07-22T21:56:52.915Z,20.80
2018-07-22T21:59:20.383Z,20.70
2018-07-22T22:01:47.735Z,20.70
2018-07-22T22:04:15.044Z,20.70
2018-07-22T22:06:42.468Z,20.70
2018-07-22T22:09:09.775Z,20.80
2018-07-22T22:11:37.124Z,20.70
2018-07-22T22:14:04.432Z,20.70
2018-07-22T22:16:31.741Z,20.60
2018-07-22T22:18:59.144Z,20.50
2018-07-22T22:21:26.559Z,20.50
2018-07-22T22:23:53.988Z,20.40
2018-07-22T22:26:21.281Z,20.20
2018-07-22T22:28:48.673Z,20.10
2018-07-22T22:31:16.109Z,20.00
2018-07-22T22:33:43.448Z,19.90
2018-07-22T22:36:10.766Z,19.90
2018-07-22T22:38:38.097Z,20.00
2018-07-22T22:41:05.552Z,19.90
2018-07-22T22:43:32.796Z,19.90
2018-07-22T22:46:00.113Z,19.90
2018-07-22T22:48:27.488Z,19.90
2018-07-22T22:50:54.884Z,19.90
2018-07-22T22:53:22.241Z,19.90
2018-07-22T22:55:49.609Z,20.00
2018-07-22T22:58:28.352Z,20.10
2018-07-22T23:00:55.708Z,20.10
2018-07-22T23:03:23.057Z,20.10
2018-07-22T23:05:50.379Z,20.20
2018-07-22T23:08:17.765Z,20.10
2018-07-22T23:10:45.051Z,20.10
2018-07-22T23:13:12.441Z,20.20
2018-07-22T23:15:39.743Z,20.10
2018-07-22T23:18:07.083Z,20.10
2018-07-22T23:20:34.411Z,20.00
2018-07-22T23:23:01.733Z,20.00
2018-07-22T23:25:29.070Z,20.00
2018-07-22T23:27:56.431Z,20.10
2018-07-22T23:30:23.795Z,20.00
2018-07-22T23:32:51.090Z,20.10
2018-07-22T23:35:18.452Z,20.10
2018-07-22T23:37:45.767Z,20.10
2018-07-22T23:40:13.087Z,20.10
2018-07-22T23:42:40.415Z,20.00
2018-07-22T23:45:07.747Z,20.10
2018-07-22T23:47:35.066Z,20.10
2018-07-22T23:50:02.411Z,20.10
2018-07-22T23:52:29.780Z,20.00
2018-07-22T23:54:57.122Z,20.00
2018-07-22T23:57:24.507Z,19.90
2018-07-22T23:59:51.843Z,19.90
